Time;durP1;ratioP1;P1;durP2;ratioP2;P2;SDS_P1;SDS_P2;PMS_P1;PMS_P2;Temp;Humidity;BMP_temperature;BMP_pressure;BME280_temperature;BME280_humidity;BME280_pressure;Samples;Min_cycle;Max_cycle;Signal;HPM_P1;HPM_P2
2023/06/22 00:01:28;;;;;;;12.43;11.13;;;20.20;99.90;;;;;;5050008;28;20494;-72
2023/06/22 00:03:56;;;;;;;13.90;12.13;;;20.20;99.90;;;;;;5049080;28;20444;-71
2023/06/22 00:06:24;;;;;;;15.37;13.67;;;20.10;99.90;;;;;;5050831;28;20440;-72
2023/06/22 00:08:52;;;;;;;13.33;12.03;;;20.00;99.90;;;;;;5050140;28;20861;-72
2023/06/22 00:11:20;;;;;;;13.97;12.67;;;20.00;99.90;;;;;;5050264;28;20483;-72
2023/06/22 00:13:49;;;;;;;13.83;12.43;;;20.00;99.90;;;;;;5049010;28;20528;-72
2023/06/22 00:16:18;;;;;;;12.93;11.83;;;19.90;99.90;;;;;;5050395;28;20594;-72
2023/06/22 00:18:47;;;;;;;12.00;10.80;;;20.00;99.90;;;;;;5051034;28;20491;-72
2023/06/22 00:21:15;;;;;;;13.60;12.17;;;19.90;99.90;;;;;;5050448;28;20452;-71
2023/06/22 00:23:43;;;;;;;13.60;12.37;;;19.80;99.90;;;;;;5049065;28;20532;-71
2023/06/22 00:26:12;;;;;;;14.90;13.30;;;19.70;99.90;;;;;;5049872;28;20480;-72
2023/06/22 00:28:40;;;;;;;14.50;13.00;;;19.60;99.90;;;;;;5050629;28;20882;-72
2023/06/22 00:31:08;;;;;;;14.33;12.63;;;19.60;99.90;;;;;;5050757;28;20471;-71
2023/06/22 00:33:37;;;;;;;14.10;12.63;;;19.60;99.90;;;;;;5049554;28;20445;-71
2023/06/22 00:36:07;;;;;;;14.40;13.07;;;19.60;99.90;;;;;;5050020;28;21256;-71
2023/06/22 00:38:38;;;;;;;14.13;12.73;;;19.50;99.90;;;;;;5050452;28;20980;-71
2023/06/22 00:41:06;;;;;;;14.20;12.80;;;19.40;99.90;;;;;;5030727;28;20966;-71
2023/06/22 00:43:34;;;;;;;13.30;11.97;;;19.30;99.90;;;;;;5029943;28;20492;-71
2023/06/22 00:46:03;;;;;;;13.30;11.83;;;19.30;99.90;;;;;;5030953;28;20432;-71
2023/06/22 00:48:31;;;;;;;14.30;12.93;;;19.30;99.90;;;;;;5030644;28;20499;-72
2023/06/22 00:51:00;;;;;;;13.80;12.50;;;19.40;99.90;;;;;;5030615;28;20449;-71
2023/06/22 00:53:28;;;;;;;13.90;12.63;;;19.30;99.90;;;;;;5028438;28;20555;-71
2023/06/22 00:55:59;;;;;;;14.83;13.50;;;19.30;99.90;;;;;;5030616;28;20526;-71
2023/06/22 00:58:27;;;;;;;13.70;12.50;;;19.30;99.90;;;;;;5030593;28;20452;-72
2023/06/22 01:00:55;;;;;;;14.00;11.83;;;19.30;99.90;;;;;;5031344;28;20487;-71
2023/06/22 01:03:23;;;;;;;13.50;12.20;;;19.40;99.90;;;;;;5028684;28;20465;-71
2023/06/22 01:05:56;;;;;;;12.37;11.27;;;19.40;99.90;;;;;;5030272;28;20433;-71
2023/06/22 01:08:37;;;;;;;14.27;12.87;;;19.40;99.90;;;;;;5030699;28;20955;-71
2023/06/22 01:11:11;;;;;;;14.83;13.43;;;19.30;99.90;;;;;;5030681;28;20445;-71
2023/06/22 01:13:46;;;;;;;15.10;13.60;;;19.30;99.90;;;;;;5029421;28;20467;-71
2023/06/22 01:16:21;;;;;;;15.10;13.27;;;19.40;99.90;;;;;;5029773;28;20472;-71
2023/06/22 01:18:53;;;;;;;14.70;12.77;;;19.40;99.90;;;;;;5030954;28;20421;-71
2023/06/22 01:21:24;;;;;;;14.80;13.30;;;19.40;99.90;;;;;;5030789;28;20483;-71
2023/06/22 01:24:03;;;;;;;13.73;12.43;;;19.30;99.90;;;;;;5028681;28;20444;-71
2023/06/22 01:26:44;;;;;;;13.40;12.00;;;19.40;99.90;;;;;;5029972;28;20443;-72
2023/06/22 01:29:15;;;;;;;14.67;13.23;;;19.40;99.90;;;;;;5029810;28;20507;-71
2023/06/22 01:31:45;;;;;;;14.47;12.97;;;19.30;99.90;;;;;;5033428;28;20472;-71
2023/06/22 01:34:14;;;;;;;17.60;15.30;;;19.20;99.90;;;;;;5032073;28;20499;-71
2023/06/22 01:36:43;;;;;;;17.27;14.47;;;19.10;99.90;;;;;;5032744;28;20583;-72
2023/06/22 01:39:12;;;;;;;15.40;13.80;;;19.20;99.90;;;;;;5032996;28;20443;-71
2023/06/22 01:41:42;;;;;;;17.20;15.50;;;19.20;99.90;;;;;;5033180;28;20456;-72
2023/06/22 01:44:11;;;;;;;17.03;15.37;;;19.10;99.90;;;;;;5031903;28;20500;-72
2023/06/22 01:46:41;;;;;;;21.03;15.07;;;19.10;99.90;;;;;;5033281;28;20520;-72
2023/06/22 01:49:09;;;;;;;17.03;15.17;;;19.10;99.90;;;;;;5032441;28;20445;-71
2023/06/22 01:51:37;;;;;;;15.77;14.37;;;19.00;99.90;;;;;;5031879;28;20556;-72
2023/06/22 01:54:07;;;;;;;15.80;14.20;;;19.00;99.90;;;;;;5031310;28;20869;-72
2023/06/22 01:56:35;;;;;;;18.00;14.50;;;19.00;99.90;;;;;;5033183;28;20554;-71
2023/06/22 01:59:12;;;;;;;17.50;15.37;;;18.90;99.90;;;;;;5032590;28;20444;-72
2023/06/22 02:01:45;;;;;;;18.23;14.30;;;18.80;99.90;;;;;;5033084;28;20457;-72
2023/06/22 02:04:16;;;;;;;16.73;14.97;;;18.80;99.90;;;;;;5031479;28;20516;-71
2023/06/22 02:06:47;;;;;;;16.13;13.70;;;18.70;99.90;;;;;;5032835;28;20441;-71
2023/06/22 02:09:17;;;;;;;15.70;13.40;;;18.70;99.90;;;;;;5033089;28;20808;-72
2023/06/22 02:11:48;;;;;;;15.77;13.80;;;18.80;99.90;;;;;;5032655;28;20873;-71
2023/06/22 02:14:16;;;;;;;16.40;14.70;;;18.80;99.90;;;;;;5031606;28;20440;-72
2023/06/22 02:16:48;;;;;;;16.63;14.43;;;18.80;99.90;;;;;;5032753;28;20471;-71
2023/06/22 02:19:18;;;;;;;17.77;14.00;;;18.90;99.90;;;;;;5032844;28;20444;-72
2023/06/22 02:21:46;;;;;;;16.87;15.13;;;18.90;99.90;;;;;;5032294;28;20475;-72
2023/06/22 02:24:14;;;;;;;19.57;15.23;;;18.90;99.90;;;;;;5031682;28;21033;-72
2023/06/22 02:26:45;;;;;;;17.43;15.70;;;18.90;99.90;;;;;;5032491;28;20974;-71
2023/06/22 02:29:13;;;;;;;16.10;14.50;;;18.80;99.90;;;;;;5032521;28;20426;-72
2023/06/22 02:31:41;;;;;;;16.27;13.83;;;18.70;99.90;;;;;;5032661;28;20461;-71
2023/06/22 02:34:17;;;;;;;16.47;14.77;;;18.70;99.90;;;;;;5029981;28;20472;-72
2023/06/22 02:36:50;;;;;;;17.10;14.17;;;18.60;99.90;;;;;;5032377;28;20468;-72
2023/06/22 02:39:21;;;;;;;16.53;14.80;;;18.50;99.90;;;;;;5031535;28;20961;-72
2023/06/22 02:41:50;;;;;;;16.00;14.50;;;18.50;99.90;;;;;;5031684;28;20797;-72
2023/06/22 02:44:18;;;;;;;18.63;16.73;;;18.60;99.90;;;;;;5030819;28;20471;-72
2023/06/22 02:46:47;;;;;;;16.80;14.80;;;18.50;99.90;;;;;;5032148;28;20512;-72
2023/06/22 02:49:16;;;;;;;16.73;14.20;;;18.40;99.90;;;;;;5032032;28;20444;-72
2023/06/22 02:51:47;;;;;;;16.33;14.60;;;18.40;99.90;;;;;;5031654;28;20465;-72
2023/06/22 02:54:16;;;;;;;16.63;14.90;;;18.30;99.90;;;;;;5030696;28;20445;-72
2023/06/22 02:56:44;;;;;;;16.57;14.60;;;18.20;99.90;;;;;;5031576;28;20481;-72
2023/06/22 02:59:12;;;;;;;16.80;14.93;;;18.30;99.90;;;;;;5031771;28;20455;-72
2023/06/22 03:01:40;;;;;;;17.47;15.70;;;18.40;99.90;;;;;;5031145;28;20515;-72
2023/06/22 03:04:09;;;;;;;17.30;15.53;;;18.30;99.90;;;;;;5030407;28;21091;-72
2023/06/22 03:06:40;;;;;;;17.00;15.30;;;18.30;99.90;;;;;;5031716;28;20433;-71
2023/06/22 03:09:08;;;;;;;16.27;14.53;;;18.30;99.90;;;;;;5031960;28;20807;-71
2023/06/22 03:11:37;;;;;;;19.50;15.73;;;18.20;99.90;;;;;;5031588;28;20971;-72
2023/06/22 03:14:05;;;;;;;16.03;14.57;;;18.10;99.90;;;;;;5029117;28;21007;-72
2023/06/22 03:16:33;;;;;;;17.30;14.47;;;18.20;99.90;;;;;;5031634;28;21070;-72
2023/06/22 03:19:01;;;;;;;17.93;14.70;;;18.20;99.90;;;;;;5031473;28;20524;-72
2023/06/22 03:21:30;;;;;;;18.87;15.97;;;18.20;99.90;;;;;;5031396;28;20463;-71
2023/06/22 03:23:59;;;;;;;16.57;14.87;;;18.20;99.90;;;;;;5030749;28;20453;-72
2023/06/22 03:26:27;;;;;;;17.10;14.73;;;18.30;99.90;;;;;;5031400;28;20445;-72
2023/06/22 03:28:55;;;;;;;16.10;14.37;;;18.30;99.90;;;;;;5031067;28;20444;-71
2023/06/22 03:31:23;;;;;;;18.23;16.60;;;18.20;99.90;;;;;;5031154;28;20471;-72
2023/06/22 03:33:52;;;;;;;16.70;15.10;;;18.20;99.90;;;;;;5029955;28;20458;-71
2023/06/22 03:36:20;;;;;;;17.23;15.37;;;18.20;99.90;;;;;;5031393;28;21189;-71
2023/06/22 03:38:50;;;;;;;19.60;14.20;;;18.20;99.90;;;;;;5030722;28;20471;-72
2023/06/22 03:41:19;;;;;;;20.33;16.50;;;18.20;99.90;;;;;;5030789;28;21027;-72
2023/06/22 03:43:47;;;;;;;18.90;17.10;;;18.10;99.90;;;;;;5029689;28;20491;-71
2023/06/22 03:46:15;;;;;;;18.20;16.33;;;18.10;99.90;;;;;;5031011;28;20443;-71
2023/06/22 03:48:43;;;;;;;15.77;14.27;;;18.00;99.90;;;;;;5030832;28;20441;-72
2023/06/22 03:51:11;;;;;;;20.23;14.30;;;18.00;99.90;;;;;;5029585;28;20436;-72
2023/06/22 03:53:39;;;;;;;15.80;14.20;;;18.00;99.90;;;;;;5028401;28;20863;-72
2023/06/22 03:56:07;;;;;;;16.07;14.30;;;18.10;99.90;;;;;;5030916;28;20449;-72
2023/06/22 03:58:42;;;;;;;17.37;15.67;;;18.00;99.90;;;;;;5030961;28;21042;-71
2023/06/22 04:01:11;;;;;;;16.33;14.83;;;18.00;99.90;;;;;;5030865;28;20455;-71
2023/06/22 04:03:40;;;;;;;18.37;15.20;;;18.00;99.90;;;;;;5029234;28;20947;-72
2023/06/22 04:06:08;;;;;;;18.03;16.27;;;18.00;99.90;;;;;;5030708;28;20441;-69
2023/06/22 04:08:36;;;;;;;16.80;15.20;;;18.10;99.90;;;;;;5030046;28;20473;-69
2023/06/22 04:11:04;;;;;;;18.07;16.37;;;18.20;99.90;;;;;;5030286;28;20441;-70
2023/06/22 04:13:33;;;;;;;16.97;15.37;;;18.40;99.90;;;;;;5029150;28;20464;-70
2023/06/22 04:16:02;;;;;;;18.60;15.40;;;18.40;99.90;;;;;;5030408;28;21183;-71
2023/06/22 04:18:30;;;;;;;16.60;14.97;;;18.60;99.90;;;;;;5030453;28;20477;-70
2023/06/22 04:20:58;;;;;;;19.27;15.50;;;18.60;99.90;;;;;;5030237;28;20491;-70
2023/06/22 04:23:26;;;;;;;14.70;13.30;;;18.60;99.90;;;;;;5029142;28;20456;-70
2023/06/22 04:25:56;;;;;;;17.10;15.27;;;18.70;99.90;;;;;;5029694;28;20436;-70
2023/06/22 04:28:24;;;;;;;15.50;14.10;;;18.80;99.90;;;;;;5030344;28;20482;-70
2023/06/22 04:30:58;;;;;;;16.37;13.67;;;18.90;99.90;;;;;;5030079;28;20448;-70
2023/06/22 04:33:27;;;;;;;16.40;14.70;;;19.00;99.90;;;;;;5028989;28;20627;-68
2023/06/22 04:35:56;;;;;;;15.80;14.20;;;19.10;99.90;;;;;;5030066;28;20465;-68
2023/06/22 04:38:25;;;;;;;16.63;14.93;;;19.20;99.90;;;;;;5029592;28;20476;-71
2023/06/22 04:40:54;;;;;;;14.20;12.80;;;19.20;99.90;;;;;;5030020;28;20780;-70
2023/06/22 04:43:22;;;;;;;15.10;13.70;;;19.20;99.90;;;;;;5034671;28;20453;-71
2023/06/22 04:45:52;;;;;;;15.90;14.27;;;19.20;99.90;;;;;;5038539;28;20516;-70
2023/06/22 04:48:20;;;;;;;14.70;13.30;;;19.30;99.90;;;;;;5039555;28;20437;-70
2023/06/22 04:50:50;;;;;;;14.67;12.93;;;19.40;99.90;;;;;;5046402;28;20440;-69
2023/06/22 04:53:18;;;;;;;15.53;13.90;;;19.50;99.90;;;;;;5048979;28;20471;-70
2023/06/22 04:55:49;;;;;;;16.40;14.57;;;19.50;99.90;;;;;;5049883;28;20765;-74
2023/06/22 04:58:19;;;;;;;15.93;14.30;;;19.60;99.90;;;;;;5049643;28;20518;-69
2023/06/22 05:00:48;;;;;;;15.30;13.90;;;19.60;99.90;;;;;;5049475;28;20447;-69
2023/06/22 05:03:18;;;;;;;14.37;12.93;;;19.70;99.90;;;;;;5048363;28;20464;-69
2023/06/22 05:05:49;;;;;;;17.13;15.33;;;19.70;99.90;;;;;;5053443;28;20447;-68
2023/06/22 05:08:17;;;;;;;16.03;14.07;;;19.90;99.90;;;;;;5053536;28;20439;-68
2023/06/22 05:10:46;;;;;;;16.33;14.63;;;20.00;99.90;;;;;;5053635;28;20952;-67
2023/06/22 05:13:32;;;;;;;16.90;14.77;;;20.20;99.90;;;;;;5040146;28;20560;-69
2023/06/22 05:16:02;;;;;;;16.70;15.10;;;20.20;99.90;;;;;;5056339;28;20444;-68
2023/06/22 05:18:31;;;;;;;14.20;13.00;;;20.30;99.90;;;;;;5033673;28;20476;-68
2023/06/22 05:21:01;;;;;;;14.37;13.07;;;20.30;99.90;;;;;;5039410;28;20827;-68
2023/06/22 05:23:29;;;;;;;14.73;13.33;;;20.40;99.90;;;;;;5046673;28;20475;-69
2023/06/22 05:25:57;;;;;;;14.33;12.83;;;20.50;99.90;;;;;;5057224;28;20444;-69
2023/06/22 05:28:26;;;;;;;13.63;12.20;;;20.60;99.90;;;;;;5053239;28;20467;-69
2023/06/22 05:30:55;;;;;;;12.90;11.73;;;20.70;99.90;;;;;;5052827;28;20526;-68
2023/06/22 05:33:23;;;;;;;14.33;12.43;;;20.90;99.90;;;;;;5052241;28;20474;-69
2023/06/22 05:35:51;;;;;;;14.30;11.77;;;21.00;99.90;;;;;;5052463;28;20450;-68
2023/06/22 05:38:20;;;;;;;14.07;12.63;;;21.10;99.90;;;;;;5053210;28;20472;-69
2023/06/22 05:40:48;;;;;;;15.50;12.80;;;21.20;99.90;;;;;;5053035;28;20535;-69
2023/06/22 05:43:16;;;;;;;13.60;12.20;;;21.40;99.90;;;;;;5052072;28;20464;-69
2023/06/22 05:45:44;;;;;;;18.10;14.87;;;21.50;99.90;;;;;;5053117;28;20448;-69
2023/06/22 05:48:12;;;;;;;15.07;12.53;;;21.60;99.90;;;;;;5053004;28;20500;-69
2023/06/22 05:50:41;;;;;;;12.93;11.63;;;21.80;99.90;;;;;;5053117;28;20830;-69
2023/06/22 05:53:09;;;;;;;16.80;13.80;;;21.80;99.90;;;;;;5051441;28;20558;-69
2023/06/22 05:55:38;;;;;;;14.00;12.80;;;21.90;99.90;;;;;;5053050;28;20486;-69
2023/06/22 05:58:06;;;;;;;14.87;13.50;;;21.90;99.90;;;;;;5052680;28;20501;-69
2023/06/22 06:00:34;;;;;;;13.93;12.57;;;21.80;99.90;;;;;;5053077;28;20451;-69
2023/06/22 06:03:03;;;;;;;14.37;12.97;;;21.80;99.90;;;;;;5051642;28;20907;-69
2023/06/22 06:05:32;;;;;;;14.43;13.10;;;21.80;99.90;;;;;;5052799;28;20448;-69
2023/06/22 06:08:00;;;;;;;14.73;13.23;;;21.70;99.90;;;;;;5052615;28;20794;-69
2023/06/22 06:10:29;;;;;;;13.47;11.90;;;21.70;99.90;;;;;;5052772;28;20455;-69
2023/06/22 06:13:01;;;;;;;16.13;13.50;;;21.60;99.90;;;;;;5051402;28;21018;-69
2023/06/22 06:15:30;;;;;;;15.60;13.13;;;21.60;99.90;;;;;;5051846;28;20519;-69
2023/06/22 06:17:58;;;;;;;17.57;13.37;;;21.70;99.90;;;;;;5052501;28;20876;-69
2023/06/22 06:20:28;;;;;;;14.27;12.60;;;21.60;99.90;;;;;;5052450;28;20443;-69
2023/06/22 06:22:57;;;;;;;16.00;14.40;;;21.70;99.90;;;;;;5051418;28;20463;-69
2023/06/22 06:25:25;;;;;;;18.30;13.87;;;21.70;99.90;;;;;;5052481;28;20443;-69
2023/06/22 06:27:55;;;;;;;17.10;13.60;;;21.70;99.90;;;;;;5052591;28;20440;-69
2023/06/22 06:30:24;;;;;;;13.47;12.23;;;21.80;99.90;;;;;;5052342;28;20531;-70
2023/06/22 06:32:55;;;;;;;12.97;11.47;;;21.90;99.90;;;;;;5051059;28;20497;-69
2023/06/22 06:35:24;;;;;;;12.77;11.43;;;22.10;99.90;;;;;;5052422;28;20436;-70
2023/06/22 06:37:52;;;;;;;12.40;10.80;;;22.20;99.90;;;;;;5052548;28;20448;-70
2023/06/22 06:40:20;;;;;;;14.53;12.53;;;22.40;99.90;;;;;;5052025;28;20579;-70
2023/06/22 06:42:49;;;;;;;13.13;11.70;;;22.60;99.90;;;;;;5050945;28;21005;-70
2023/06/22 06:45:19;;;;;;;12.23;10.97;;;22.80;99.90;;;;;;5052449;28;20471;-70
2023/06/22 06:47:48;;;;;;;14.00;12.47;;;22.80;99.90;;;;;;5052565;28;20436;-70
2023/06/22 06:50:17;;;;;;;12.57;11.47;;;23.00;99.90;;;;;;5052505;28;20440;-69
2023/06/22 06:52:46;;;;;;;11.07;10.07;;;23.00;99.90;;;;;;5050801;28;20464;-69
2023/06/22 06:55:14;;;;;;;10.80;9.80;;;23.10;99.90;;;;;;5051692;28;20447;-69
2023/06/22 06:57:43;;;;;;;11.83;10.73;;;23.30;99.90;;;;;;5051747;28;20961;-69
2023/06/22 07:00:13;;;;;;;13.00;11.53;;;23.40;99.90;;;;;;5051647;28;20479;-68
2023/06/22 07:02:43;;;;;;;12.00;9.80;;;23.50;99.90;;;;;;5050544;28;20460;-68
2023/06/22 07:05:13;;;;;;;11.60;10.00;;;23.60;99.90;;;;;;5051870;28;20482;-69
2023/06/22 07:07:42;;;;;;;11.20;10.20;;;23.70;99.90;;;;;;5042817;28;20436;-69
2023/06/22 07:10:11;;;;;;;10.93;9.70;;;23.80;99.90;;;;;;5050921;28;20506;-68
2023/06/22 07:12:40;;;;;;;11.53;10.33;;;23.80;99.90;;;;;;5048775;28;21110;-69
2023/06/22 07:15:09;;;;;;;11.13;9.77;;;23.90;99.90;;;;;;5050848;28;20543;-69
2023/06/22 07:17:39;;;;;;;10.00;9.10;;;24.00;99.90;;;;;;5050197;28;20942;-68
2023/06/22 07:20:09;;;;;;;11.20;9.80;;;24.10;99.90;;;;;;5050393;28;20472;-69
2023/06/22 07:22:39;;;;;;;11.07;9.53;;;24.20;99.90;;;;;;5048926;28;20464;-68
2023/06/22 07:25:09;;;;;;;11.80;9.87;;;24.40;99.90;;;;;;5050077;28;20425;-69
2023/06/22 07:27:39;;;;;;;9.43;8.53;;;24.50;99.90;;;;;;5051355;28;20482;-69
2023/06/22 07:30:09;;;;;;;8.33;7.60;;;24.70;99.90;;;;;;5051300;28;20543;-69
2023/06/22 07:32:37;;;;;;;8.17;7.23;;;24.80;99.20;;;;;;5049946;28;20521;-69
2023/06/22 07:35:06;;;;;;;8.63;7.83;;;25.00;98.80;;;;;;5050973;28;21133;-70
2023/06/22 07:37:35;;;;;;;9.57;7.97;;;25.10;98.50;;;;;;5050857;28;20635;-70
2023/06/22 07:40:06;;;;;;;8.30;7.50;;;25.30;96.90;;;;;;5051078;28;20480;-69
2023/06/22 07:42:34;;;;;;;8.37;7.57;;;25.40;97.30;;;;;;5050054;28;20452;-70
2023/06/22 07:45:03;;;;;;;8.07;7.10;;;25.60;95.30;;;;;;5051176;28;20440;-70
2023/06/22 07:47:34;;;;;;;10.83;7.77;;;25.70;95.40;;;;;;5050924;28;20440;-69
2023/06/22 07:50:04;;;;;;;8.73;7.87;;;25.80;94.50;;;;;;5050855;28;20436;-69
2023/06/22 07:52:33;;;;;;;7.47;6.60;;;26.00;95.20;;;;;;5049851;28;21146;-69
2023/06/22 07:55:02;;;;;;;7.90;7.20;;;26.20;93.30;;;;;;5050490;28;20452;-70
2023/06/22 07:57:33;;;;;;;7.30;6.47;;;26.40;92.70;;;;;;5050788;28;20443;-69
2023/06/22 08:00:08;;;;;;;9.00;6.40;;;26.50;93.00;;;;;;5050747;28;20475;-68
2023/06/22 08:02:36;;;;;;;7.50;6.90;;;26.70;92.00;;;;;;5048255;28;20443;-69
2023/06/22 08:05:06;;;;;;;7.97;7.10;;;26.80;91.90;;;;;;5051003;28;20205;-68
2023/06/22 08:07:54;;;;;;;7.27;6.57;;;27.00;91.20;;;;;;5050361;28;20938;-69
2023/06/22 08:10:23;;;;;;;8.37;6.37;;;27.10;87.50;;;;;;5050777;28;20471;-69
2023/06/22 08:12:52;;;;;;;8.47;6.80;;;27.20;90.00;;;;;;5049407;28;20522;-69
2023/06/22 08:15:21;;;;;;;6.90;6.30;;;27.30;90.30;;;;;;5050891;28;20440;-69
2023/06/22 08:17:52;;;;;;;13.27;6.43;;;27.40;87.80;;;;;;5050657;28;20448;-68
2023/06/22 08:20:20;;;;;;;9.77;6.57;;;27.40;86.00;;;;;;5050156;28;20475;-68
2023/06/22 08:22:48;;;;;;;9.77;6.47;;;27.50;86.50;;;;;;5048857;28;20990;-68
2023/06/22 08:25:16;;;;;;;6.40;5.80;;;27.60;88.20;;;;;;5050140;28;20442;-68
2023/06/22 08:27:48;;;;;;;7.50;5.80;;;27.80;84.70;;;;;;5050070;28;20942;-68
2023/06/22 08:30:18;;;;;;;7.10;6.40;;;28.20;83.00;;;;;;5050120;28;20483;-69
2023/06/22 08:32:46;;;;;;;7.07;6.37;;;28.70;80.20;;;;;;5048926;28;20998;-68
2023/06/22 08:35:14;;;;;;;7.43;6.73;;;29.00;74.30;;;;;;5050061;28;20451;-68
2023/06/22 08:37:42;;;;;;;6.80;6.10;;;29.30;74.70;;;;;;5050203;28;20935;-68
2023/06/22 08:40:11;;;;;;;8.77;6.20;;;29.50;69.90;;;;;;5049569;28;20571;-69
2023/06/22 08:42:41;;;;;;;6.97;6.37;;;29.50;70.70;;;;;;5048969;28;21065;-70
2023/06/22 08:45:11;;;;;;;9.00;7.20;;;29.70;70.60;;;;;;5050583;28;20460;-69
2023/06/22 08:47:41;;;;;;;7.90;6.50;;;29.60;68.90;;;;;;5050260;28;20475;-71
2023/06/22 08:50:10;;;;;;;6.40;5.90;;;29.50;70.10;;;;;;5050036;28;20535;-70
2023/06/22 08:52:41;;;;;;;7.90;7.10;;;29.70;75.00;;;;;;5048760;28;20468;-70
2023/06/22 08:55:10;;;;;;;9.17;7.27;;;29.90;72.90;;;;;;5050096;28;20531;-70
2023/06/22 08:57:39;;;;;;;9.33;6.23;;;30.20;70.60;;;;;;5050050;28;20497;-70
2023/06/22 09:00:17;;;;;;;7.40;6.67;;;30.70;67.40;;;;;;5050043;28;20572;-70
2023/06/22 09:02:48;;;;;;;8.10;6.93;;;30.80;66.20;;;;;;5048687;28;20849;-70
2023/06/22 09:05:17;;;;;;;8.90;6.93;;;31.20;66.30;;;;;;5049981;28;20439;-70
2023/06/22 09:07:45;;;;;;;7.90;7.20;;;31.50;65.90;;;;;;5049852;28;20450;-70
2023/06/22 09:10:14;;;;;;;8.50;6.93;;;31.60;60.30;;;;;;5049811;28;20515;-71
2023/06/22 09:12:44;;;;;;;10.00;8.00;;;31.70;62.20;;;;;;5048464;28;20582;-70
2023/06/22 09:15:12;;;;;;;8.50;7.00;;;31.50;60.20;;;;;;5049934;28;20467;-69
2023/06/22 09:17:57;;;;;;;8.07;6.93;;;31.30;63.20;;;;;;5050252;28;20433;-68
2023/06/22 09:20:25;;;;;;;9.40;6.83;;;31.50;59.40;;;;;;5050229;28;20480;-68
2023/06/22 09:22:54;;;;;;;13.67;7.90;;;31.10;60.00;;;;;;5048955;28;20460;-70
2023/06/22 09:25:22;;;;;;;8.23;7.37;;;30.70;61.40;;;;;;5050347;28;20439;-69
2023/06/22 09:27:50;;;;;;;10.43;7.67;;;30.30;63.90;;;;;;5049859;28;20450;-69
2023/06/22 09:30:18;;;;;;;10.60;7.03;;;30.10;65.40;;;;;;5049814;28;20877;-70
2023/06/22 09:32:46;;;;;;;10.83;8.07;;;30.20;66.20;;;;;;5048928;28;20488;-70
2023/06/22 09:35:15;;;;;;;10.83;7.73;;;30.10;69.50;;;;;;5050432;28;20853;-70
2023/06/22 09:37:44;;;;;;;10.13;8.37;;;30.20;64.70;;;;;;5049951;28;20506;-71
2023/06/22 09:40:15;;;;;;;9.17;7.43;;;30.20;63.10;;;;;;5049412;28;20483;-70
2023/06/22 09:42:43;;;;;;;8.77;6.23;;;30.10;64.00;;;;;;5048394;28;20468;-70
2023/06/22 09:45:11;;;;;;;8.23;7.40;;;30.20;65.00;;;;;;5049682;28;20534;-70
2023/06/22 09:47:40;;;;;;;7.80;6.70;;;30.30;64.10;;;;;;5049081;28;20938;-70
2023/06/22 09:50:09;;;;;;;7.57;6.53;;;30.50;66.10;;;;;;5049233;28;21205;-70
2023/06/22 09:52:38;;;;;;;7.93;7.20;;;30.90;65.60;;;;;;5051158;28;20491;-70
2023/06/22 09:55:09;;;;;;;8.97;6.70;;;31.30;61.80;;;;;;5052834;28;20454;-70
2023/06/22 09:57:37;;;;;;;9.00;7.83;;;31.20;59.30;;;;;;5053096;28;20545;-70
2023/06/22 10:00:11;;;;;;;9.33;7.70;;;30.90;64.10;;;;;;5052684;28;20958;-70
2023/06/22 10:02:39;;;;;;;8.63;6.70;;;31.20;60.70;;;;;;5048960;28;20459;-70
2023/06/22 10:05:08;;;;;;;8.17;7.37;;;31.40;60.40;;;;;;5045796;28;20478;-70
2023/06/22 10:07:42;;;;;;;9.17;7.40;;;31.90;62.60;;;;;;5056270;28;20536;-69
2023/06/22 10:10:10;;;;;;;8.00;7.10;;;32.50;62.10;;;;;;5042056;28;20444;-70
2023/06/22 10:12:43;;;;;;;7.70;7.00;;;33.20;58.10;;;;;;5031069;28;20471;-70
2023/06/22 10:15:12;;;;;;;8.80;7.20;;;33.80;58.40;;;;;;5032686;28;20491;-70
2023/06/22 10:17:40;;;;;;;8.60;7.80;;;34.10;54.90;;;;;;5032441;28;20452;-70
2023/06/22 10:20:12;;;;;;;9.50;7.70;;;34.30;52.30;;;;;;5032502;28;20445;-70
2023/06/22 10:22:43;;;;;;;8.87;8.07;;;33.80;52.90;;;;;;5031184;28;20835;-70
2023/06/22 10:25:12;;;;;;;10.60;7.83;;;33.70;55.50;;;;;;5032707;28;20452;-70
2023/06/22 10:27:40;;;;;;;7.40;6.67;;;33.70;55.50;;;;;;5032099;28;20492;-70
2023/06/22 10:30:10;;;;;;;11.00;7.33;;;33.70;55.10;;;;;;5032535;28;20472;-70
2023/06/22 10:32:39;;;;;;;7.50;6.70;;;34.10;53.60;;;;;;5031184;28;20472;-70
2023/06/22 10:35:08;;;;;;;8.87;6.80;;;34.40;54.50;;;;;;5032290;28;20441;-70
2023/06/22 10:37:36;;;;;;;7.77;7.03;;;34.80;54.00;;;;;;5032434;28;20441;-70
2023/06/22 10:40:08;;;;;;;9.40;7.70;;;35.20;51.80;;;;;;5031554;28;20445;-70
2023/06/22 10:42:36;;;;;;;7.43;6.70;;;35.40;49.50;;;;;;5031540;28;20492;-70
2023/06/22 10:45:04;;;;;;;8.80;6.60;;;35.20;50.20;;;;;;5032413;28;20499;-70
2023/06/22 10:47:32;;;;;;;9.63;6.93;;;35.40;53.50;;;;;;5032555;28;21069;-70
2023/06/22 10:50:00;;;;;;;9.20;6.50;;;35.60;48.90;;;;;;5032160;28;20441;-70
2023/06/22 10:52:29;;;;;;;11.30;7.07;;;36.00;47.50;;;;;;5031242;28;20551;-70
2023/06/22 10:54:57;;;;;;;7.63;6.27;;;35.50;47.50;;;;;;5033347;28;20457;-70
2023/06/22 10:57:26;;;;;;;8.07;6.97;;;35.00;48.80;;;;;;5055893;28;20455;-70
2023/06/22 10:59:54;;;;;;;10.40;6.67;;;35.00;51.60;;;;;;5053243;28;20542;-70
2023/06/22 11:02:22;;;;;;;11.13;6.80;;;35.30;54.80;;;;;;5050767;28;20866;-70
2023/06/22 11:04:50;;;;;;;10.67;7.37;;;35.60;53.00;;;;;;5054133;28;20447;-71
2023/06/22 11:07:18;;;;;;;7.77;6.60;;;35.70;51.20;;;;;;5047286;28;20472;-70
2023/06/22 11:09:46;;;;;;;8.67;7.23;;;35.90;51.00;;;;;;5051574;28;20460;-70
2023/06/22 11:12:14;;;;;;;8.30;7.43;;;35.90;51.80;;;;;;5048996;28;20486;-70
2023/06/22 11:14:44;;;;;;;11.47;7.17;;;35.80;49.20;;;;;;5036553;28;20951;-70
2023/06/22 11:17:12;;;;;;;11.30;7.10;;;35.60;50.50;;;;;;5031122;28;20923;-70
2023/06/22 11:19:40;;;;;;;11.67;6.53;;;35.60;51.40;;;;;;5031598;28;20532;-71
2023/06/22 11:22:08;;;;;;;7.90;5.90;;;35.50;54.30;;;;;;5030867;28;20496;-70
2023/06/22 11:24:36;;;;;;;8.53;7.57;;;35.50;51.20;;;;;;5030523;28;20441;-70
2023/06/22 11:27:04;;;;;;;9.13;6.60;;;35.50;50.00;;;;;;5031271;28;21005;-70
2023/06/22 11:29:33;;;;;;;11.47;7.03;;;35.40;49.10;;;;;;5012376;28;20971;-70
2023/06/22 11:32:23;;;;;;;7.40;6.60;;;35.20;53.00;;;;;;5030468;28;20469;-70
2023/06/22 11:34:51;;;;;;;10.37;7.03;;;35.00;48.80;;;;;;5030703;28;20514;-69
2023/06/22 11:37:19;;;;;;;7.77;6.53;;;34.50;49.30;;;;;;5030979;28;20449;-70
2023/06/22 11:39:47;;;;;;;11.87;6.57;;;34.20;51.00;;;;;;5030982;28;20445;-69
2023/06/22 11:42:19;;;;;;;8.93;7.10;;;33.80;50.50;;;;;;5030247;28;20484;-69
2023/06/22 11:44:47;;;;;;;8.50;7.00;;;33.50;52.10;;;;;;5030567;28;20482;-71
2023/06/22 11:47:15;;;;;;;9.60;7.30;;;33.70;54.40;;;;;;5031084;28;20549;-71
2023/06/22 11:49:45;;;;;;;10.50;6.87;;;34.20;51.20;;;;;;5030919;28;20449;-70
2023/06/22 11:52:13;;;;;;;9.50;7.10;;;34.40;50.60;;;;;;5029982;28;20496;-70
2023/06/22 11:54:41;;;;;;;12.43;7.67;;;34.40;49.30;;;;;;5029712;28;20551;-70
2023/06/22 11:57:09;;;;;;;7.30;6.60;;;34.40;50.30;;;;;;5030478;28;20479;-69
2023/06/22 11:59:37;;;;;;;8.20;7.00;;;34.60;53.40;;;;;;5030530;28;20441;-69
2023/06/22 12:02:07;;;;;;;7.97;6.90;;;34.80;48.60;;;;;;5032089;28;20487;-71
2023/06/22 12:04:35;;;;;;;10.43;6.37;;;34.80;49.80;;;;;;5033331;28;20434;-72
2023/06/22 12:07:05;;;;;;;10.43;6.80;;;34.70;52.20;;;;;;5039437;28;20432;-72
2023/06/22 12:09:33;;;;;;;9.77;7.00;;;34.80;52.30;;;;;;5035410;28;20440;-71
2023/06/22 12:12:01;;;;;;;13.00;8.23;;;34.80;50.60;;;;;;5040045;28;20476;-70
2023/06/22 12:14:29;;;;;;;11.60;8.40;;;34.70;50.60;;;;;;5037320;28;20433;-70
2023/06/22 12:16:59;;;;;;;10.23;7.63;;;34.50;50.90;;;;;;5040306;28;20448;-71
2023/06/22 12:19:27;;;;;;;12.33;7.70;;;34.30;50.90;;;;;;5040859;28;20522;-70
2023/06/22 12:21:55;;;;;;;7.57;6.77;;;34.10;51.40;;;;;;5037938;28;20488;-70
2023/06/22 12:24:25;;;;;;;8.47;7.30;;;34.10;53.90;;;;;;5047213;28;20540;-70
2023/06/22 12:26:53;;;;;;;13.27;7.77;;;34.00;53.50;;;;;;5040191;28;20449;-70
2023/06/22 12:29:23;;;;;;;16.40;7.30;;;33.90;53.10;;;;;;5038747;28;20878;-70
2023/06/22 12:31:51;;;;;;;10.57;7.93;;;33.90;54.00;;;;;;5038074;28;20656;-70
2023/06/22 12:34:19;;;;;;;11.63;7.83;;;33.80;50.70;;;;;;5045150;28;20854;-70
2023/06/22 12:36:48;;;;;;;10.43;7.60;;;33.70;51.00;;;;;;5038532;28;20437;-69
2023/06/22 12:39:16;;;;;;;11.40;7.40;;;34.00;51.80;;;;;;5033285;28;20973;-71
2023/06/22 12:41:45;;;;;;;8.70;6.87;;;34.40;50.70;;;;;;5030826;28;20477;-70
2023/06/22 12:44:13;;;;;;;11.23;7.50;;;34.50;51.10;;;;;;5030949;28;20437;-70